sensor_id;sensor_type;location;lat;lon;timestamp;temperature;humidity
48604;DHT22;32708;51.212;6.788;2023-04-28T00:00:10;12.80;64.10
48604;DHT22;32708;51.212;6.788;2023-04-28T00:02:39;12.70;1.00
48604;DHT22;32708;51.212;6.788;2023-04-28T00:05:05;12.80;99.90
48604;DHT22;32708;51.212;6.788;2023-04-28T00:07:33;12.90;99.90
48604;DHT22;32708;51.212;6.788;2023-04-28T00:09:59;12.80;1.00
48604;DHT22;32708;51.212;6.788;2023-04-28T00:12:26;12.60;99.90
48604;DHT22;32708;51.212;6.788;2023-04-28T00:14:52;12.90;99.90
48604;DHT22;32708;51.212;6.788;2023-04-28T00:17:19;12.50;99.90
48604;DHT22;32708;51.212;6.788;2023-04-28T00:19:45;12.40;1.00
48604;DHT22;32708;51.212;6.788;2023-04-28T00:22:11;12.40;1.00
48604;DHT22;32708;51.212;6.788;2023-04-28T00:24:38;12.50;1.00
48604;DHT22;32708;51.212;6.788;2023-04-28T00:27:06;12.50;1.00
48604;DHT22;32708;51.212;6.788;2023-04-28T00:29:33;12.50;1.00
48604;DHT22;32708;51.212;6.788;2023-04-28T00:32:00;12.30;1.00
48604;DHT22;32708;51.212;6.788;2023-04-28T00:34:26;12.40;1.00
48604;DHT22;32708;51.212;6.788;2023-04-28T00:36:54;12.50;1.00
48604;DHT22;32708;51.212;6.788;2023-04-28T00:39:20;12.50;1.00
48604;DHT22;32708;51.212;6.788;2023-04-28T00:41:48;12.50;1.00
48604;DHT22;32708;51.212;6.788;2023-04-28T00:44:14;12.70;1.00
48604;DHT22;32708;51.212;6.788;2023-04-28T00:46:40;12.30;1.00
48604;DHT22;32708;51.212;6.788;2023-04-28T00:49:07;12.30;1.00
48604;DHT22;32708;51.212;6.788;2023-04-28T00:51:33;12.70;1.00
48604;DHT22;32708;51.212;6.788;2023-04-28T00:54:00;12.40;12.60
48604;DHT22;32708;51.212;6.788;2023-04-28T00:56:30;12.30;13.60
48604;DHT22;32708;51.212;6.788;2023-04-28T00:58:57;12.30;24.80
48604;DHT22;32708;51.212;6.788;2023-04-28T01:01:24;12.20;35.40
48604;DHT22;32708;51.212;6.788;2023-04-28T01:03:50;12.10;53.80
48604;DHT22;32708;51.212;6.788;2023-04-28T01:06:17;12.00;59.40
48604;DHT22;32708;51.212;6.788;2023-04-28T01:08:49;12.00;68.40
48604;DHT22;32708;51.212;6.788;2023-04-28T01:11:17;12.10;69.50
48604;DHT22;32708;51.212;6.788;2023-04-28T01:14:02;12.10;78.10
48604;DHT22;32708;51.212;6.788;2023-04-28T01:16:29;12.10;82.80
48604;DHT22;32708;51.212;6.788;2023-04-28T01:18:59;12.00;84.30
48604;DHT22;32708;51.212;6.788;2023-04-28T01:21:27;12.20;88.70
48604;DHT22;32708;51.212;6.788;2023-04-28T01:23:56;12.10;91.20
48604;DHT22;32708;51.212;6.788;2023-04-28T01:26:26;11.90;94.90
48604;DHT22;32708;51.212;6.788;2023-04-28T01:28:52;12.00;97.00
48604;DHT22;32708;51.212;6.788;2023-04-28T01:31:19;11.90;99.00
48604;DHT22;32708;51.212;6.788;2023-04-28T01:33:45;11.90;99.50
48604;DHT22;32708;51.212;6.788;2023-04-28T01:36:11;11.90;99.50
48604;DHT22;32708;51.212;6.788;2023-04-28T01:38:37;12.00;99.90
48604;DHT22;32708;51.212;6.788;2023-04-28T01:41:04;11.80;99.90
48604;DHT22;32708;51.212;6.788;2023-04-28T01:43:32;11.70;99.90
48604;DHT22;32708;51.212;6.788;2023-04-28T01:45:58;11.80;99.90
48604;DHT22;32708;51.212;6.788;2023-04-28T01:48:24;11.90;99.90
48604;DHT22;32708;51.212;6.788;2023-04-28T01:50:50;11.80;99.90
48604;DHT22;32708;51.212;6.788;2023-04-28T01:53:18;12.30;99.90
48604;DHT22;32708;51.212;6.788;2023-04-28T01:56:03;12.00;99.90
48604;DHT22;32708;51.212;6.788;2023-04-28T01:58:30;11.80;99.90
48604;DHT22;32708;51.212;6.788;2023-04-28T02:00:56;11.90;99.90
48604;DHT22;32708;51.212;6.788;2023-04-28T02:03:23;11.80;99.90
48604;DHT22;32708;51.212;6.788;2023-04-28T02:05:49;11.80;99.90
48604;DHT22;32708;51.212;6.788;2023-04-28T02:08:15;11.70;99.90
48604;DHT22;32708;51.212;6.788;2023-04-28T02:10:42;11.70;99.90
48604;DHT22;32708;51.212;6.788;2023-04-28T02:13:09;11.80;99.90
48604;DHT22;32708;51.212;6.788;2023-04-28T02:15:40;11.90;99.90
48604;DHT22;32708;51.212;6.788;2023-04-28T02:18:09;11.80;99.90
48604;DHT22;32708;51.212;6.788;2023-04-28T02:20:35;11.80;99.90
48604;DHT22;32708;51.212;6.788;2023-04-28T02:23:01;11.70;99.90
48604;DHT22;32708;51.212;6.788;2023-04-28T02:25:27;11.70;99.90
48604;DHT22;32708;51.212;6.788;2023-04-28T02:27:53;11.60;99.90
48604;DHT22;32708;51.212;6.788;2023-04-28T02:30:19;11.60;99.90
48604;DHT22;32708;51.212;6.788;2023-04-28T02:32:48;11.60;99.90
48604;DHT22;32708;51.212;6.788;2023-04-28T02:35:14;11.60;99.90
48604;DHT22;32708;51.212;6.788;2023-04-28T02:37:40;11.50;99.90
48604;DHT22;32708;51.212;6.788;2023-04-28T02:40:07;11.50;99.90
48604;DHT22;32708;51.212;6.788;2023-04-28T02:42:33;11.50;99.90
48604;DHT22;32708;51.212;6.788;2023-04-28T02:44:59;11.60;99.90
48604;DHT22;32708;51.212;6.788;2023-04-28T02:47:25;11.60;99.90
48604;DHT22;32708;51.212;6.788;2023-04-28T02:49:52;11.60;99.90
48604;DHT22;32708;51.212;6.788;2023-04-28T02:52:18;12.10;99.90
48604;DHT22;32708;51.212;6.788;2023-04-28T02:54:44;11.60;99.90
48604;DHT22;32708;51.212;6.788;2023-04-28T02:57:14;11.50;99.90
48604;DHT22;32708;51.212;6.788;2023-04-28T02:59:40;11.50;99.90
48604;DHT22;32708;51.212;6.788;2023-04-28T03:02:06;11.50;99.90
48604;DHT22;32708;51.212;6.788;2023-04-28T03:04:33;11.80;99.90
48604;DHT22;32708;51.212;6.788;2023-04-28T03:07:00;11.50;99.90
48604;DHT22;32708;51.212;6.788;2023-04-28T03:09:26;11.50;99.90
48604;DHT22;32708;51.212;6.788;2023-04-28T03:11:52;11.50;99.90
48604;DHT22;32708;51.212;6.788;2023-04-28T03:14:18;11.50;99.90
48604;DHT22;32708;51.212;6.788;2023-04-28T03:16:44;11.40;99.90
48604;DHT22;32708;51.212;6.788;2023-04-28T03:19:11;11.40;99.90
48604;DHT22;32708;51.212;6.788;2023-04-28T03:21:37;11.40;99.90
48604;DHT22;32708;51.212;6.788;2023-04-28T03:24:03;11.30;99.90
48604;DHT22;32708;51.212;6.788;2023-04-28T03:26:32;11.40;99.90
48604;DHT22;32708;51.212;6.788;2023-04-28T03:29:00;11.30;99.90
48604;DHT22;32708;51.212;6.788;2023-04-28T03:31:26;11.40;99.90
48604;DHT22;32708;51.212;6.788;2023-04-28T03:33:53;11.40;99.90
48604;DHT22;32708;51.212;6.788;2023-04-28T03:36:19;11.30;99.90
48604;DHT22;32708;51.212;6.788;2023-04-28T03:38:45;11.50;99.90
48604;DHT22;32708;51.212;6.788;2023-04-28T03:41:11;11.30;99.90
48604;DHT22;32708;51.212;6.788;2023-04-28T03:44:13;11.20;99.90
48604;DHT22;32708;51.212;6.788;2023-04-28T03:46:47;11.20;99.90
48604;DHT22;32708;51.212;6.788;2023-04-28T03:49:13;11.10;99.90
48604;DHT22;32708;51.212;6.788;2023-04-28T03:51:41;11.10;99.90
48604;DHT22;32708;51.212;6.788;2023-04-28T03:54:07;11.00;99.90
48604;DHT22;32708;51.212;6.788;2023-04-28T03:56:34;10.90;99.90
48604;DHT22;32708;51.212;6.788;2023-04-28T03:59:02;11.30;99.90
48604;DHT22;32708;51.212;6.788;2023-04-28T04:01:28;11.00;99.90
48604;DHT22;32708;51.212;6.788;2023-04-28T04:03:54;11.00;99.90
48604;DHT22;32708;51.212;6.788;2023-04-28T04:06:21;11.00;99.90
48604;DHT22;32708;51.212;6.788;2023-04-28T04:08:48;11.00;99.90
48604;DHT22;32708;51.212;6.788;2023-04-28T04:11:14;11.00;99.90
48604;DHT22;32708;51.212;6.788;2023-04-28T04:13:40;11.00;99.90
48604;DHT22;32708;51.212;6.788;2023-04-28T04:16:10;11.00;99.90
48604;DHT22;32708;51.212;6.788;2023-04-28T04:18:36;11.00;99.90
48604;DHT22;32708;51.212;6.788;2023-04-28T04:21:02;11.20;99.90
48604;DHT22;32708;51.212;6.788;2023-04-28T04:23:29;11.00;99.90
48604;DHT22;32708;51.212;6.788;2023-04-28T04:25:55;11.00;99.90
48604;DHT22;32708;51.212;6.788;2023-04-28T04:28:22;11.00;99.90
48604;DHT22;32708;51.212;6.788;2023-04-28T04:30:47;10.90;99.90
48604;DHT22;32708;51.212;6.788;2023-04-28T04:33:14;11.50;99.90
48604;DHT22;32708;51.212;6.788;2023-04-28T04:35:40;11.10;99.90
48604;DHT22;32708;51.212;6.788;2023-04-28T04:38:06;11.40;99.90
48604;DHT22;32708;51.212;6.788;2023-04-28T04:40:33;11.20;99.90
48604;DHT22;32708;51.212;6.788;2023-04-28T04:43:00;11.20;99.90
48604;DHT22;32708;51.212;6.788;2023-04-28T04:45:27;11.20;99.90
48604;DHT22;32708;51.212;6.788;2023-04-28T04:47:54;11.20;99.90
48604;DHT22;32708;51.212;6.788;2023-04-28T04:50:20;11.20;99.90
48604;DHT22;32708;51.212;6.788;2023-04-28T04:52:46;11.20;99.90
48604;DHT22;32708;51.212;6.788;2023-04-28T04:55:12;11.20;99.90
48604;DHT22;32708;51.212;6.788;2023-04-28T04:57:40;11.20;99.90
48604;DHT22;32708;51.212;6.788;2023-04-28T05:00:20;11.20;99.90
48604;DHT22;32708;51.212;6.788;2023-04-28T05:02:47;11.30;99.90
48604;DHT22;32708;51.212;6.788;2023-04-28T05:05:13;11.30;99.90
48604;DHT22;32708;51.212;6.788;2023-04-28T05:07:39;11.30;99.90
48604;DHT22;32708;51.212;6.788;2023-04-28T05:10:05;11.60;99.90
48604;DHT22;32708;51.212;6.788;2023-04-28T05:12:32;11.40;99.90
48604;DHT22;32708;51.212;6.788;2023-04-28T05:14:59;11.40;99.90
48604;DHT22;32708;51.212;6.788;2023-04-28T05:17:25;11.50;99.90
48604;DHT22;32708;51.212;6.788;2023-04-28T05:19:51;11.50;99.90
48604;DHT22;32708;51.212;6.788;2023-04-28T05:22:17;11.30;99.90
48604;DHT22;32708;51.212;6.788;2023-04-28T05:24:44;11.40;99.90
48604;DHT22;32708;51.212;6.788;2023-04-28T05:27:10;11.50;99.90
48604;DHT22;32708;51.212;6.788;2023-04-28T05:29:36;11.60;99.90
48604;DHT22;32708;51.212;6.788;2023-04-28T05:32:02;11.50;99.90
48604;DHT22;32708;51.212;6.788;2023-04-28T05:34:28;11.60;99.90
48604;DHT22;32708;51.212;6.788;2023-04-28T05:36:54;11.60;99.90
48604;DHT22;32708;51.212;6.788;2023-04-28T05:39:20;11.70;99.90
48604;DHT22;32708;51.212;6.788;2023-04-28T05:41:46;11.70;99.90
48604;DHT22;32708;51.212;6.788;2023-04-28T05:44:12;11.70;99.90
48604;DHT22;32708;51.212;6.788;2023-04-28T05:46:39;11.70;99.90
48604;DHT22;32708;51.212;6.788;2023-04-28T05:49:06;11.70;99.90
48604;DHT22;32708;51.212;6.788;2023-04-28T05:51:36;11.70;99.90
48604;DHT22;32708;51.212;6.788;2023-04-28T05:54:03;11.80;99.90
48604;DHT22;32708;51.212;6.788;2023-04-28T05:56:29;11.90;99.90
48604;DHT22;32708;51.212;6.788;2023-04-28T05:58:55;12.00;99.90
48604;DHT22;32708;51.212;6.788;2023-04-28T06:01:23;12.10;99.90
48604;DHT22;32708;51.212;6.788;2023-04-28T06:03:49;12.20;99.90
48604;DHT22;32708;51.212;6.788;2023-04-28T06:06:17;12.30;99.90
48604;DHT22;32708;51.212;6.788;2023-04-28T06:08:43;12.40;99.90
48604;DHT22;32708;51.212;6.788;2023-04-28T06:11:11;13.00;99.90
48604;DHT22;32708;51.212;6.788;2023-04-28T06:13:38;12.70;99.90
48604;DHT22;32708;51.212;6.788;2023-04-28T06:16:05;12.70;99.90
48604;DHT22;32708;51.212;6.788;2023-04-28T06:18:32;13.00;99.90
48604;DHT22;32708;51.212;6.788;2023-04-28T06:21:00;13.20;99.90
48604;DHT22;32708;51.212;6.788;2023-04-28T06:23:29;13.00;99.90
48604;DHT22;32708;51.212;6.788;2023-04-28T06:25:55;12.80;99.90
48604;DHT22;32708;51.212;6.788;2023-04-28T06:28:21;12.70;99.90
48604;DHT22;32708;51.212;6.788;2023-04-28T06:30:47;12.60;99.90
48604;DHT22;32708;51.212;6.788;2023-04-28T06:33:13;12.80;99.90
48604;DHT22;32708;51.212;6.788;2023-04-28T06:35:39;12.70;99.90
48604;DHT22;32708;51.212;6.788;2023-04-28T06:38:06;12.80;99.90
48604;DHT22;32708;51.212;6.788;2023-04-28T06:40:32;12.80;99.90
48604;DHT22;32708;51.212;6.788;2023-04-28T06:43:01;12.80;99.90
48604;DHT22;32708;51.212;6.788;2023-04-28T06:45:39;12.70;99.90
48604;DHT22;32708;51.212;6.788;2023-04-28T06:48:06;12.70;99.90
48604;DHT22;32708;51.212;6.788;2023-04-28T06:50:38;12.60;99.90
48604;DHT22;32708;51.212;6.788;2023-04-28T06:53:06;12.60;99.90
48604;DHT22;32708;51.212;6.788;2023-04-28T06:55:33;12.70;99.90
48604;DHT22;32708;51.212;6.788;2023-04-28T06:58:00;12.80;99.90
48604;DHT22;32708;51.212;6.788;2023-04-28T07:00:26;12.90;99.90
48604;DHT22;32708;51.212;6.788;2023-04-28T07:02:52;12.70;99.90
48604;DHT22;32708;51.212;6.788;2023-04-28T07:05:19;12.80;99.90
48604;DHT22;32708;51.212;6.788;2023-04-28T07:07:46;12.80;99.90
48604;DHT22;32708;51.212;6.788;2023-04-28T07:10:13;13.00;99.90
48604;DHT22;32708;51.212;6.788;2023-04-28T07:12:41;12.90;99.90
48604;DHT22;32708;51.212;6.788;2023-04-28T07:15:07;13.00;99.90
48604;DHT22;32708;51.212;6.788;2023-04-28T07:17:34;13.10;99.90
48604;DHT22;32708;51.212;6.788;2023-04-28T07:20:02;13.10;99.90
48604;DHT22;32708;51.212;6.788;2023-04-28T07:22:30;13.10;99.90
48604;DHT22;32708;51.212;6.788;2023-04-28T07:24:58;13.00;99.90
48604;DHT22;32708;51.212;6.788;2023-04-28T07:27:24;13.10;99.90
48604;DHT22;32708;51.212;6.788;2023-04-28T07:29:50;13.10;99.90
48604;DHT22;32708;51.212;6.788;2023-04-28T07:32:17;13.20;99.90
48604;DHT22;32708;51.212;6.788;2023-04-28T07:34:43;13.20;99.90
48604;DHT22;32708;51.212;6.788;2023-04-28T07:37:09;13.10;99.90
48604;DHT22;32708;51.212;6.788;2023-04-28T07:39:36;13.40;99.90
48604;DHT22;32708;51.212;6.788;2023-04-28T07:42:04;13.60;99.90
48604;DHT22;32708;51.212;6.788;2023-04-28T07:44:30;13.30;99.90
48604;DHT22;32708;51.212;6.788;2023-04-28T07:46:59;13.10;99.90
48604;DHT22;32708;51.212;6.788;2023-04-28T07:49:30;13.10;99.90
48604;DHT22;32708;51.212;6.788;2023-04-28T07:51:57;13.10;99.90
48604;DHT22;32708;51.212;6.788;2023-04-28T07:54:23;13.20;99.90
48604;DHT22;32708;51.212;6.788;2023-04-28T07:56:50;13.20;99.90
48604;DHT22;32708;51.212;6.788;2023-04-28T07:59:16;13.20;99.90
48604;DHT22;32708;51.212;6.788;2023-04-28T08:01:42;13.10;99.90
48604;DHT22;32708;51.212;6.788;2023-04-28T08:04:08;13.10;99.90
48604;DHT22;32708;51.212;6.788;2023-04-28T08:06:37;13.30;99.90
48604;DHT22;32708;51.212;6.788;2023-04-28T08:09:04;13.30;99.90
48604;DHT22;32708;51.212;6.788;2023-04-28T08:11:31;13.40;99.90
48604;DHT22;32708;51.212;6.788;2023-04-28T08:14:00;13.50;99.90
48604;DHT22;32708;51.212;6.788;2023-04-28T08:16:28;13.60;99.90
48604;DHT22;32708;51.212;6.788;2023-04-28T08:18:59;13.60;99.90
48604;DHT22;32708;51.212;6.788;2023-04-28T08:21:26;13.80;99.90
48604;DHT22;32708;51.212;6.788;2023-04-28T08:23:52;13.90;99.90
48604;DHT22;32708;51.212;6.788;2023-04-28T08:26:19;14.10;99.90
48604;DHT22;32708;51.212;6.788;2023-04-28T08:28:46;14.10;99.90
48604;DHT22;32708;51.212;6.788;2023-04-28T08:31:12;14.40;99.90
48604;DHT22;32708;51.212;6.788;2023-04-28T08:33:38;14.70;99.90
48604;DHT22;32708;51.212;6.788;2023-04-28T08:36:09;15.00;99.90
48604;DHT22;32708;51.212;6.788;2023-04-28T08:38:40;15.10;99.90
48604;DHT22;32708;51.212;6.788;2023-04-28T08:41:07;15.10;99.90
48604;DHT22;32708;51.212;6.788;2023-04-28T08:43:35;15.00;99.90
48604;DHT22;32708;51.212;6.788;2023-04-28T08:46:06;15.00;99.90
48604;DHT22;32708;51.212;6.788;2023-04-28T08:48:40;15.10;99.90
48604;DHT22;32708;51.212;6.788;2023-04-28T08:51:16;14.70;99.90
48604;DHT22;32708;51.212;6.788;2023-04-28T08:53:55;14.60;99.90
48604;DHT22;32708;51.212;6.788;2023-04-28T08:56:26;14.40;99.90
48604;DHT22;32708;51.212;6.788;2023-04-28T08:59:03;14.30;99.90
48604;DHT22;32708;51.212;6.788;2023-04-28T09:01:30;14.20;99.90
48604;DHT22;32708;51.212;6.788;2023-04-28T09:04:00;14.20;99.90
48604;DHT22;32708;51.212;6.788;2023-04-28T09:06:36;14.40;99.90
48604;DHT22;32708;51.212;6.788;2023-04-28T09:11:50;14.00;99.90
48604;DHT22;32708;51.212;6.788;2023-04-28T09:14:22;14.20;99.90
48604;DHT22;32708;51.212;6.788;2023-04-28T09:16:49;14.20;99.90
48604;DHT22;32708;51.212;6.788;2023-04-28T09:19:16;14.40;99.90
48604;DHT22;32708;51.212;6.788;2023-04-28T09:21:56;14.40;99.90
48604;DHT22;32708;51.212;6.788;2023-04-28T09:24:31;14.20;99.90
48604;DHT22;32708;51.212;6.788;2023-04-28T09:27:11;14.40;99.90
48604;DHT22;32708;51.212;6.788;2023-04-28T09:29:52;14.40;99.90
48604;DHT22;32708;51.212;6.788;2023-04-28T09:32:20;14.30;99.90
48604;DHT22;32708;51.212;6.788;2023-04-28T09:34:52;14.30;99.90
48604;DHT22;32708;51.212;6.788;2023-04-28T09:37:23;14.60;99.90
48604;DHT22;32708;51.212;6.788;2023-04-28T09:40:10;14.60;99.90
48604;DHT22;32708;51.212;6.788;2023-04-28T09:42:40;14.40;99.90
48604;DHT22;32708;51.212;6.788;2023-04-28T09:45:11;14.90;99.90
48604;DHT22;32708;51.212;6.788;2023-04-28T09:47:45;15.00;99.90
48604;DHT22;32708;51.212;6.788;2023-04-28T09:50:14;15.10;99.90
48604;DHT22;32708;51.212;6.788;2023-04-28T09:52:47;15.00;99.90
48604;DHT22;32708;51.212;6.788;2023-04-28T09:55:26;15.00;99.90
48604;DHT22;32708;51.212;6.788;2023-04-28T09:57:54;15.20;99.90
48604;DHT22;32708;51.212;6.788;2023-04-28T10:00:21;15.20;99.90
48604;DHT22;32708;51.212;6.788;2023-04-28T10:02:48;15.20;99.90
48604;DHT22;32708;51.212;6.788;2023-04-28T10:05:16;15.20;99.90
48604;DHT22;32708;51.212;6.788;2023-04-28T10:07:43;15.10;99.90
48604;DHT22;32708;51.212;6.788;2023-04-28T10:10:11;15.10;99.90
48604;DHT22;32708;51.212;6.788;2023-04-28T10:12:39;15.10;99.90
48604;DHT22;32708;51.212;6.788;2023-04-28T10:15:08;15.10;99.90
48604;DHT22;32708;51.212;6.788;2023-04-28T10:17:37;14.90;99.90
48604;DHT22;32708;51.212;6.788;2023-04-28T10:20:07;14.90;99.90
48604;DHT22;32708;51.212;6.788;2023-04-28T10:25:29;15.10;99.90
48604;DHT22;32708;51.212;6.788;2023-04-28T10:28:03;15.20;99.90
48604;DHT22;32708;51.212;6.788;2023-04-28T10:30:31;15.30;99.90
48604;DHT22;32708;51.212;6.788;2023-04-28T10:33:23;15.30;99.90
48604;DHT22;32708;51.212;6.788;2023-04-28T10:35:51;15.00;99.90
48604;DHT22;32708;51.212;6.788;2023-04-28T10:38:19;15.10;99.90
48604;DHT22;32708;51.212;6.788;2023-04-28T10:40:51;15.00;99.90
48604;DHT22;32708;51.212;6.788;2023-04-28T10:56:24;15.10;99.90
48604;DHT22;32708;51.212;6.788;2023-04-28T10:58:58;15.20;99.90
48604;DHT22;32708;51.212;6.788;2023-04-28T11:01:32;15.20;99.90
48604;DHT22;32708;51.212;6.788;2023-04-28T11:04:08;15.20;99.90
48604;DHT22;32708;51.212;6.788;2023-04-28T11:06:41;15.10;99.90
48604;DHT22;32708;51.212;6.788;2023-04-28T11:19:45;15.50;99.90
48604;DHT22;32708;51.212;6.788;2023-04-28T11:22:18;15.60;99.90
48604;DHT22;32708;51.212;6.788;2023-04-28T11:25:02;15.60;99.90
48604;DHT22;32708;51.212;6.788;2023-04-28T11:27:32;15.60;99.90
48604;DHT22;32708;51.212;6.788;2023-04-28T11:29:59;15.80;99.90
48604;DHT22;32708;51.212;6.788;2023-04-28T11:32:33;15.70;99.90
48604;DHT22;32708;51.212;6.788;2023-04-28T11:35:01;15.60;99.90
48604;DHT22;32708;51.212;6.788;2023-04-28T11:37:29;15.80;99.90
48604;DHT22;32708;51.212;6.788;2023-04-28T11:39:55;16.10;99.90
48604;DHT22;32708;51.212;6.788;2023-04-28T11:42:23;16.30;99.90
48604;DHT22;32708;51.212;6.788;2023-04-28T11:44:53;16.50;99.90
48604;DHT22;32708;51.212;6.788;2023-04-28T11:47:32;16.80;99.90
48604;DHT22;32708;51.212;6.788;2023-04-28T11:50:00;17.10;99.90
48604;DHT22;32708;51.212;6.788;2023-04-28T11:52:27;17.50;99.90
48604;DHT22;32708;51.212;6.788;2023-04-28T11:54:57;17.80;99.90
48604;DHT22;32708;51.212;6.788;2023-04-28T11:57:31;18.00;99.90
48604;DHT22;32708;51.212;6.788;2023-04-28T12:00:14;17.60;99.90
48604;DHT22;32708;51.212;6.788;2023-04-28T12:02:48;17.70;99.90
48604;DHT22;32708;51.212;6.788;2023-04-28T12:05:14;17.60;99.90
48604;DHT22;32708;51.212;6.788;2023-04-28T12:07:43;17.70;99.90
48604;DHT22;32708;51.212;6.788;2023-04-28T12:10:12;18.00;99.90
48604;DHT22;32708;51.212;6.788;2023-04-28T12:12:43;18.30;99.90
48604;DHT22;32708;51.212;6.788;2023-04-28T12:15:10;18.50;99.90
48604;DHT22;32708;51.212;6.788;2023-04-28T12:17:38;18.90;99.90
48604;DHT22;32708;51.212;6.788;2023-04-28T12:20:08;18.90;99.20
48604;DHT22;32708;51.212;6.788;2023-04-28T12:22:56;18.80;99.00
48604;DHT22;32708;51.212;6.788;2023-04-28T12:25:24;19.20;92.80
48604;DHT22;32708;51.212;6.788;2023-04-28T12:28:05;19.10;90.80
48604;DHT22;32708;51.212;6.788;2023-04-28T12:30:35;19.00;93.00
48604;DHT22;32708;51.212;6.788;2023-04-28T12:33:25;19.10;90.90
48604;DHT22;32708;51.212;6.788;2023-04-28T12:35:56;19.30;88.50
48604;DHT22;32708;51.212;6.788;2023-04-28T12:38:23;19.50;71.70
48604;DHT22;32708;51.212;6.788;2023-04-28T12:40:51;19.50;66.80
48604;DHT22;32708;51.212;6.788;2023-04-28T12:43:18;19.10;80.10
48604;DHT22;32708;51.212;6.788;2023-04-28T12:45:45;19.20;88.50
48604;DHT22;32708;51.212;6.788;2023-04-28T12:48:12;19.10;86.60
48604;DHT22;32708;51.212;6.788;2023-04-28T12:50:38;18.90;90.40
48604;DHT22;32708;51.212;6.788;2023-04-28T12:53:04;18.90;90.50
48604;DHT22;32708;51.212;6.788;2023-04-28T12:55:31;18.90;87.90
48604;DHT22;32708;51.212;6.788;2023-04-28T12:57:58;18.90;92.20
48604;DHT22;32708;51.212;6.788;2023-04-28T13:00:24;19.00;92.10
48604;DHT22;32708;51.212;6.788;2023-04-28T13:02:51;19.30;84.10
48604;DHT22;32708;51.212;6.788;2023-04-28T13:05:17;19.00;90.20
48604;DHT22;32708;51.212;6.788;2023-04-28T13:07:45;19.20;91.80
48604;DHT22;32708;51.212;6.788;2023-04-28T13:10:12;20.10;48.50
48604;DHT22;32708;51.212;6.788;2023-04-28T13:12:38;20.70;17.30
48604;DHT22;32708;51.212;6.788;2023-04-28T13:15:05;21.10;1.00
48604;DHT22;32708;51.212;6.788;2023-04-28T13:17:31;20.90;1.00
48604;DHT22;32708;51.212;6.788;2023-04-28T13:19:59;20.30;1.00
48604;DHT22;32708;51.212;6.788;2023-04-28T13:22:27;20.10;19.10
48604;DHT22;32708;51.212;6.788;2023-04-28T13:24:54;20.30;1.00
48604;DHT22;32708;51.212;6.788;2023-04-28T13:27:20;20.30;2.60
48604;DHT22;32708;51.212;6.788;2023-04-28T13:29:47;20.20;6.90
48604;DHT22;32708;51.212;6.788;2023-04-28T13:32:13;19.70;41.30
48604;DHT22;32708;51.212;6.788;2023-04-28T13:34:40;19.80;25.00
48604;DHT22;32708;51.212;6.788;2023-04-28T13:37:06;19.60;32.20
48604;DHT22;32708;51.212;6.788;2023-04-28T13:39:32;20.30;2.80
48604;DHT22;32708;51.212;6.788;2023-04-28T13:41:58;20.40;1.00
48604;DHT22;32708;51.212;6.788;2023-04-28T13:44:24;20.70;1.00
48604;DHT22;32708;51.212;6.788;2023-04-28T13:46:51;20.70;1.00
48604;DHT22;32708;51.212;6.788;2023-04-28T13:49:19;20.90;1.00
48604;DHT22;32708;51.212;6.788;2023-04-28T13:51:45;21.10;1.00
48604;DHT22;32708;51.212;6.788;2023-04-28T13:54:11;20.60;1.00
48604;DHT22;32708;51.212;6.788;2023-04-28T13:56:37;20.50;1.00
48604;DHT22;32708;51.212;6.788;2023-04-28T13:59:04;20.40;1.00
48604;DHT22;32708;51.212;6.788;2023-04-28T14:01:30;20.20;1.00
48604;DHT22;32708;51.212;6.788;2023-04-28T14:03:57;20.20;1.00
48604;DHT22;32708;51.212;6.788;2023-04-28T14:06:23;20.30;1.00
48604;DHT22;32708;51.212;6.788;2023-04-28T14:08:49;20.50;1.00
48604;DHT22;32708;51.212;6.788;2023-04-28T14:11:15;20.60;1.00
48604;DHT22;32708;51.212;6.788;2023-04-28T14:13:43;20.90;1.00
48604;DHT22;32708;51.212;6.788;2023-04-28T14:16:09;21.20;99.90
48604;DHT22;32708;51.212;6.788;2023-04-28T14:18:36;21.10;99.90
48604;DHT22;32708;51.212;6.788;2023-04-28T14:21:02;21.20;99.90
48604;DHT22;32708;51.212;6.788;2023-04-28T14:23:32;20.80;99.90
48604;DHT22;32708;51.212;6.788;2023-04-28T14:26:00;20.40;99.90
48604;DHT22;32708;51.212;6.788;2023-04-28T14:28:27;20.00;1.00
48604;DHT22;32708;51.212;6.788;2023-04-28T14:30:53;20.10;99.90
48604;DHT22;32708;51.212;6.788;2023-04-28T14:33:19;20.30;99.90
48604;DHT22;32708;51.212;6.788;2023-04-28T14:35:45;20.40;99.90
48604;DHT22;32708;51.212;6.788;2023-04-28T14:38:12;20.30;99.90
48604;DHT22;32708;51.212;6.788;2023-04-28T14:40:39;20.20;99.90
48604;DHT22;32708;51.212;6.788;2023-04-28T14:43:05;20.10;99.90
48604;DHT22;32708;51.212;6.788;2023-04-28T14:45:31;20.20;99.90
48604;DHT22;32708;51.212;6.788;2023-04-28T14:47:57;20.30;99.90
48604;DHT22;32708;51.212;6.788;2023-04-28T14:50:24;20.10;99.90
48604;DHT22;32708;51.212;6.788;2023-04-28T14:52:50;20.00;99.90
48604;DHT22;32708;51.212;6.788;2023-04-28T14:55:16;19.80;99.90
48604;DHT22;32708;51.212;6.788;2023-04-28T14:57:42;19.80;99.90
48604;DHT22;32708;51.212;6.788;2023-04-28T15:00:09;19.80;99.90
48604;DHT22;32708;51.212;6.788;2023-04-28T15:02:36;19.70;99.90
48604;DHT22;32708;51.212;6.788;2023-04-28T15:05:02;19.60;99.90
48604;DHT22;32708;51.212;6.788;2023-04-28T15:07:31;19.60;99.90
48604;DHT22;32708;51.212;6.788;2023-04-28T15:09:58;19.60;1.00
48604;DHT22;32708;51.212;6.788;2023-04-28T15:12:25;19.50;99.90
48604;DHT22;32708;51.212;6.788;2023-04-28T15:14:51;19.30;1.00
48604;DHT22;32708;51.212;6.788;2023-04-28T15:17:19;19.20;1.00
48604;DHT22;32708;51.212;6.788;2023-04-28T15:19:48;19.10;1.00
48604;DHT22;32708;51.212;6.788;2023-04-28T15:22:14;19.20;1.00
48604;DHT22;32708;51.212;6.788;2023-04-28T15:24:40;19.00;1.00
48604;DHT22;32708;51.212;6.788;2023-04-28T15:27:07;19.10;1.00
48604;DHT22;32708;51.212;6.788;2023-04-28T15:29:33;19.30;1.00
48604;DHT22;32708;51.212;6.788;2023-04-28T15:32:00;19.00;1.40
48604;DHT22;32708;51.212;6.788;2023-04-28T15:34:26;18.50;44.40
48604;DHT22;32708;51.212;6.788;2023-04-28T15:36:52;18.30;55.80
48604;DHT22;32708;51.212;6.788;2023-04-28T15:39:19;18.20;62.10
48604;DHT22;32708;51.212;6.788;2023-04-28T15:41:45;18.20;57.10
48604;DHT22;32708;51.212;6.788;2023-04-28T15:44:12;17.90;72.20
48604;DHT22;32708;51.212;6.788;2023-04-28T15:46:38;17.70;86.40
48604;DHT22;32708;51.212;6.788;2023-04-28T15:49:04;17.70;82.20
48604;DHT22;32708;51.212;6.788;2023-04-28T15:51:30;17.50;79.00
48604;DHT22;32708;51.212;6.788;2023-04-28T15:53:56;17.40;79.10
48604;DHT22;32708;51.212;6.788;2023-04-28T15:56:23;17.50;66.80
48604;DHT22;32708;51.212;6.788;2023-04-28T15:58:49;17.50;56.80
48604;DHT22;32708;51.212;6.788;2023-04-28T16:01:16;17.50;40.80
48604;DHT22;32708;51.212;6.788;2023-04-28T16:03:43;17.60;24.20
48604;DHT22;32708;51.212;6.788;2023-04-28T16:06:09;17.70;1.00